createdAt,value
2023-05-09T00:00:16.427Z,18.00
2023-05-09T00:05:20.859Z,18.00
2023-05-09T00:10:22.858Z,17.90
2023-05-09T00:15:25.976Z,17.80
2023-05-09T00:20:28.371Z,17.70
2023-05-09T00:25:30.429Z,17.70
2023-05-09T00:30:32.379Z,17.60
2023-05-09T00:35:34.816Z,17.50
2023-05-09T00:40:36.784Z,17.40
2023-05-09T00:45:38.812Z,17.30
2023-05-09T00:50:41.201Z,17.30
2023-05-09T00:55:43.208Z,17.20
2023-05-09T01:00:45.233Z,17.10
2023-05-09T01:06:04.714Z,17.00
2023-05-09T01:11:10.671Z,16.90
2023-05-09T01:16:18.779Z,16.90
2023-05-09T01:21:24.097Z,16.80
2023-05-09T01:26:26.130Z,16.70
2023-05-09T01:31:28.550Z,16.70
2023-05-09T01:36:33.155Z,16.60
2023-05-09T01:41:37.492Z,16.50
2023-05-09T01:46:40.192Z,16.50
2023-05-09T01:51:43.769Z,16.40
2023-05-09T01:56:46.989Z,16.30
2023-05-09T02:01:49.919Z,16.30
2023-05-09T02:06:52.145Z,16.20
2023-05-09T02:11:54.244Z,16.20
2023-05-09T02:16:56.384Z,16.10
2023-05-09T02:21:58.442Z,16.10
2023-05-09T02:27:01.751Z,16.00
2023-05-09T02:32:04.347Z,16.00
2023-05-09T02:37:07.100Z,15.90
2023-05-09T02:42:10.684Z,15.80
2023-05-09T02:47:12.704Z,15.80
2023-05-09T02:52:14.703Z,15.70
2023-05-09T02:57:17.353Z,15.70
2023-05-09T03:02:19.544Z,15.60
2023-05-09T03:07:22.160Z,15.60
2023-05-09T03:12:24.165Z,15.60
2023-05-09T03:17:27.513Z,15.60
2023-05-09T03:22:30.522Z,15.60
2023-05-09T03:27:32.968Z,15.60
2023-05-09T03:32:35.904Z,15.70
2023-05-09T03:37:38.103Z,15.70
2023-05-09T03:42:40.926Z,15.70
2023-05-09T03:47:43.289Z,15.70
2023-05-09T03:52:47.778Z,15.80
2023-05-09T03:57:51.234Z,15.80
2023-05-09T04:02:53.802Z,15.90
2023-05-09T04:07:57.369Z,16.00
2023-05-09T04:12:59.535Z,16.00
2023-05-09T04:18:01.911Z,16.10
2023-05-09T04:23:04.006Z,16.10
2023-05-09T04:28:06.402Z,16.20
2023-05-09T04:33:08.593Z,16.30
2023-05-09T04:38:11.491Z,16.40
2023-05-09T04:43:13.836Z,16.50
2023-05-09T04:48:15.945Z,16.60
2023-05-09T04:53:18.038Z,16.70
2023-05-09T04:58:21.989Z,16.70
2023-05-09T05:03:24.482Z,16.70
2023-05-09T05:08:26.632Z,16.90
2023-05-09T05:13:29.283Z,17.00
2023-05-09T05:18:32.362Z,17.00
2023-05-09T05:23:34.543Z,17.10
2023-05-09T05:28:37.848Z,17.20
2023-05-09T05:33:40.515Z,17.30
2023-05-09T05:38:42.667Z,17.40
2023-05-09T05:43:44.946Z,17.50
2023-05-09T05:48:48.617Z,17.60
2023-05-09T05:53:50.874Z,17.80
2023-05-09T05:58:54.028Z,18.00
2023-05-09T06:03:56.233Z,18.10
2023-05-09T06:08:59.266Z,18.30
2023-05-09T06:14:01.349Z,18.50
2023-05-09T06:19:03.501Z,18.80
2023-05-09T06:24:10.167Z,19.00
2023-05-09T06:29:15.387Z,19.20
2023-05-09T06:34:17.475Z,19.40
2023-05-09T06:39:19.762Z,19.60
2023-05-09T06:44:21.922Z,19.70
2023-05-09T06:49:23.906Z,19.80
2023-05-09T06:54:26.056Z,19.80
2023-05-09T06:59:28.328Z,19.90
2023-05-09T07:04:30.454Z,20.00
2023-05-09T07:09:32.842Z,20.10
2023-05-09T07:14:34.922Z,20.20
2023-05-09T07:19:37.013Z,20.40
2023-05-09T07:24:39.002Z,20.50
2023-05-09T07:29:40.978Z,20.70
2023-05-09T07:34:43.306Z,20.80
2023-05-09T07:39:46.158Z,20.90
2023-05-09T07:44:48.280Z,21.00
2023-05-09T07:49:50.467Z,21.10
2023-05-09T07:54:52.469Z,20.90
2023-05-09T07:59:54.688Z,21.40
2023-05-09T08:04:56.832Z,21.70
2023-05-09T08:09:58.857Z,21.90
2023-05-09T08:15:00.896Z,22.20
2023-05-09T08:20:05.455Z,22.50
2023-05-09T08:25:08.026Z,22.70
2023-05-09T08:30:10.764Z,22.80
2023-05-09T08:35:13.174Z,22.80
2023-05-09T08:40:16.354Z,23.00
2023-05-09T08:45:22.858Z,23.00
2023-05-09T09:00:31.300Z,23.20
2023-05-09T09:10:48.497Z,23.60
2023-05-09T09:15:53.371Z,23.60
2023-05-09T09:21:18.745Z,23.70
2023-05-09T09:26:21.499Z,23.90
2023-05-09T09:31:25.068Z,24.10
2023-05-09T09:36:29.705Z,24.30
2023-05-09T09:41:35.676Z,24.70
2023-05-09T09:46:44.712Z,24.90
2023-05-09T09:51:54.536Z,25.20
2023-05-09T09:56:56.944Z,25.30
2023-05-09T10:02:07.125Z,25.50
2023-05-09T10:07:15.064Z,25.70
2023-05-09T10:12:20.568Z,25.90
2023-05-09T10:17:23.361Z,26.00
2023-05-09T10:22:26.359Z,26.20
2023-05-09T10:27:30.616Z,26.50
2023-05-09T10:32:39.608Z,26.60
2023-05-09T10:37:41.937Z,26.90
2023-05-09T10:42:44.837Z,27.10
2023-05-09T10:47:50.436Z,27.30
2023-05-09T10:53:11.563Z,27.30
2023-05-09T10:58:27.562Z,27.40
2023-05-09T11:03:49.825Z,27.30
2023-05-09T11:08:51.893Z,27.20
2023-05-09T11:18:57.067Z,27.00
2023-05-09T11:23:59.159Z,26.90
2023-05-09T11:29:02.747Z,26.80
2023-05-09T11:34:06.344Z,26.60
2023-05-09T11:39:09.525Z,26.40
2023-05-09T11:44:21.087Z,26.20
2023-05-09T11:49:23.106Z,26.10
2023-05-09T11:54:26.386Z,26.00
2023-05-09T11:59:36.134Z,25.80
2023-05-09T12:04:38.778Z,25.70
2023-05-09T12:15:13.967Z,25.70
2023-05-09T12:20:16.388Z,25.70
2023-05-09T12:25:18.468Z,25.80
2023-05-09T12:30:20.652Z,26.00
2023-05-09T12:35:25.471Z,26.10
2023-05-09T12:40:28.018Z,26.30
2023-05-09T12:45:31.998Z,26.50
2023-05-09T12:50:35.592Z,26.50
2023-05-09T12:55:41.594Z,26.50
2023-05-09T13:00:44.580Z,26.50
2023-05-09T13:05:54.200Z,26.60
2023-05-09T13:11:08.024Z,26.50
2023-05-09T13:16:17.750Z,26.50
2023-05-09T13:21:20.367Z,26.40
2023-05-09T13:26:23.059Z,26.40
2023-05-09T13:31:25.405Z,26.50
2023-05-09T13:36:27.673Z,26.30
2023-05-09T13:41:32.097Z,26.30
2023-05-09T13:46:34.178Z,26.30
2023-05-09T13:51:36.761Z,26.40
2023-05-09T13:56:39.563Z,26.40
2023-05-09T14:01:41.628Z,26.40
2023-05-09T14:06:48.132Z,26.40
2023-05-09T14:11:53.354Z,26.30
2023-05-09T14:16:55.390Z,26.20
2023-05-09T14:21:57.443Z,26.10
2023-05-09T14:26:59.429Z,26.10
2023-05-09T14:32:01.472Z,26.10
2023-05-09T14:37:03.545Z,26.20
2023-05-09T14:42:05.923Z,26.20
2023-05-09T14:47:09.103Z,26.40
2023-05-09T14:52:11.165Z,26.10
2023-05-09T14:57:13.467Z,26.10
2023-05-09T15:02:15.577Z,26.10
2023-05-09T15:07:17.867Z,26.00
2023-05-09T15:12:19.932Z,26.00
2023-05-09T15:17:22.506Z,25.90
2023-05-09T15:22:24.594Z,25.90
2023-05-09T15:27:26.920Z,25.80
2023-05-09T15:32:28.990Z,25.80
2023-05-09T15:37:31.018Z,25.80
2023-05-09T15:42:33.135Z,25.80
2023-05-09T15:47:35.510Z,25.80
2023-05-09T15:57:39.982Z,25.70
2023-05-09T16:02:44.035Z,25.60
2023-05-09T16:07:47.052Z,25.60
2023-05-09T16:12:49.142Z,25.50
2023-05-09T16:17:51.233Z,25.40
2023-05-09T16:22:53.332Z,25.30
2023-05-09T16:27:55.379Z,25.20
2023-05-09T16:37:59.792Z,25.00
2023-05-09T16:43:02.151Z,24.90
2023-05-09T16:48:04.420Z,24.80
2023-05-09T16:53:09.376Z,24.70
2023-05-09T16:58:11.576Z,24.50
2023-05-09T17:03:14.127Z,24.40
2023-05-09T17:13:26.671Z,24.20
2023-05-09T17:18:36.673Z,24.00
2023-05-09T17:23:41.390Z,23.80
2023-05-09T17:28:43.801Z,23.70
2023-05-09T17:33:46.025Z,23.50
2023-05-09T17:38:48.061Z,23.20
2023-05-09T17:43:51.865Z,23.10
2023-05-09T17:48:53.884Z,22.80
2023-05-09T17:53:56.033Z,22.70
2023-05-09T17:58:59.088Z,22.40
2023-05-09T18:04:01.248Z,22.20
2023-05-09T18:14:28.365Z,22.00
2023-05-09T18:19:30.366Z,21.90
2023-05-09T18:24:32.423Z,21.70
2023-05-09T18:29:34.529Z,21.60
2023-05-09T18:34:36.562Z,21.50
2023-05-09T18:39:38.624Z,21.40
2023-05-09T18:44:40.805Z,21.30
2023-05-09T18:54:45.243Z,21.20
2023-05-09T18:59:47.277Z,21.10
2023-05-09T19:04:50.479Z,20.90
2023-05-09T19:09:52.522Z,20.90
2023-05-09T19:14:55.566Z,20.80
2023-05-09T19:19:57.679Z,20.80
2023-05-09T19:30:04.240Z,20.70
2023-05-09T19:35:06.677Z,20.60
2023-05-09T19:40:08.853Z,20.60
2023-05-09T19:45:11.064Z,20.60
2023-05-09T19:50:13.652Z,20.50
2023-05-09T19:55:15.989Z,20.50
2023-05-09T20:00:18.329Z,20.50
2023-05-09T20:05:20.771Z,20.50
2023-05-09T20:10:22.925Z,20.40
2023-05-09T20:15:25.786Z,20.30
2023-05-09T20:20:27.830Z,20.30
2023-05-09T20:25:29.838Z,20.00
2023-05-09T20:30:31.935Z,20.20
2023-05-09T20:35:34.050Z,20.20
2023-05-09T20:40:36.220Z,20.20
2023-05-09T20:50:40.844Z,20.10
2023-05-09T20:55:42.859Z,20.10
2023-05-09T21:00:48.372Z,20.10
2023-05-09T21:10:54.285Z,20.10
2023-05-09T21:15:56.346Z,20.00
2023-05-09T21:21:00.873Z,20.00
2023-05-09T21:26:03.182Z,20.00
2023-05-09T21:31:05.320Z,20.00
2023-05-09T21:36:07.701Z,19.90
2023-05-09T21:41:10.120Z,19.80
2023-05-09T21:46:12.382Z,19.60
2023-05-09T21:51:15.174Z,19.60
2023-05-09T21:56:17.193Z,19.50
2023-05-09T22:01:19.558Z,19.40
2023-05-09T22:06:21.620Z,19.20
2023-05-09T22:11:24.271Z,19.10
2023-05-09T22:16:26.506Z,19.00
2023-05-09T22:21:28.658Z,18.90
2023-05-09T22:26:30.816Z,18.80
2023-05-09T22:31:32.902Z,18.50
2023-05-09T22:36:36.650Z,18.60
2023-05-09T22:41:38.693Z,18.60
2023-05-09T22:46:40.737Z,18.60
2023-05-09T22:51:42.833Z,18.50
2023-05-09T22:56:46.311Z,18.50
2023-05-09T23:01:48.299Z,18.70
2023-05-09T23:11:53.128Z,18.40
2023-05-09T23:16:56.501Z,18.30
2023-05-09T23:21:59.320Z,18.30
2023-05-09T23:27:02.548Z,18.30
2023-05-09T23:32:04.686Z,18.30
2023-05-09T23:37:07.232Z,18.20
2023-05-09T23:42:09.281Z,18.10
2023-05-09T23:47:11.295Z,18.10
2023-05-09T23:52:13.429Z,18.10
2023-05-09T23:57:15.771Z,18.00
